createdAt,value
2023-06-20T00:00:31.183Z,0.00
2023-06-20T00:01:31.177Z,0.00
2023-06-20T00:02:31.262Z,0.00
2023-06-20T00:03:31.168Z,0.00
2023-06-20T00:04:31.173Z,0.00
2023-06-20T00:05:31.128Z,0.00
2023-06-20T00:06:31.122Z,0.00
2023-06-20T00:07:31.114Z,0.00
2023-06-20T00:08:31.116Z,0.00
2023-06-20T00:09:31.083Z,0.00
2023-06-20T00:10:31.070Z,0.00
2023-06-20T00:11:31.062Z,0.00
2023-06-20T00:12:31.050Z,0.00
2023-06-20T00:13:31.061Z,0.00
2023-06-20T00:14:31.042Z,0.00
2023-06-20T00:15:31.027Z,0.00
2023-06-20T00:16:31.021Z,0.00
2023-06-20T00:17:31.051Z,0.00
2023-06-20T00:18:31.009Z,0.00
2023-06-20T00:19:31.002Z,0.00
2023-06-20T00:20:30.984Z,0.00
2023-06-20T00:21:30.963Z,0.00
2023-06-20T00:22:30.951Z,0.00
2023-06-20T00:23:30.997Z,0.00
2023-06-20T00:24:30.946Z,0.00
2023-06-20T00:25:30.918Z,0.00
2023-06-20T00:26:30.912Z,0.00
2023-06-20T00:27:30.894Z,0.00
2023-06-20T00:28:30.897Z,0.00
2023-06-20T00:29:30.868Z,0.00
2023-06-20T00:30:30.868Z,0.00
2023-06-20T00:31:30.842Z,0.00
2023-06-20T00:32:30.883Z,0.00
2023-06-20T00:33:30.860Z,0.00
2023-06-20T00:34:30.811Z,0.00
2023-06-20T00:35:30.819Z,0.00
2023-06-20T00:36:30.800Z,0.00
2023-06-20T00:37:30.781Z,0.00
2023-06-20T00:38:30.764Z,0.00
2023-06-20T00:39:30.795Z,0.00
2023-06-20T00:40:30.749Z,0.00
2023-06-20T00:41:30.738Z,0.00
2023-06-20T00:42:30.737Z,0.00
2023-06-20T00:43:30.714Z,0.00
2023-06-20T00:44:30.724Z,0.00
2023-06-20T00:45:30.698Z,0.00
2023-06-20T00:46:30.793Z,0.00
2023-06-20T00:47:30.721Z,0.00
2023-06-20T00:48:30.662Z,0.00
2023-06-20T00:49:30.685Z,0.00
2023-06-20T00:50:30.655Z,0.00
2023-06-20T00:51:30.622Z,0.00
2023-06-20T00:52:30.622Z,0.00
2023-06-20T00:53:30.610Z,0.00
2023-06-20T00:54:30.604Z,0.00
2023-06-20T00:55:30.601Z,0.00
2023-06-20T00:56:30.580Z,0.00
2023-06-20T00:57:30.569Z,0.00
2023-06-20T00:58:30.547Z,0.00
2023-06-20T00:59:30.536Z,0.00
2023-06-20T01:00:30.554Z,0.00
2023-06-20T01:01:30.537Z,0.00
2023-06-20T01:02:30.530Z,0.00
2023-06-20T01:03:30.589Z,0.00
2023-06-20T01:04:30.486Z,0.00
2023-06-20T01:05:30.503Z,0.00
2023-06-20T01:06:30.484Z,0.00
2023-06-20T01:07:30.456Z,0.00
2023-06-20T01:08:30.447Z,0.00
2023-06-20T01:09:30.429Z,0.00
2023-06-20T01:10:30.425Z,0.00
2023-06-20T01:11:30.453Z,0.00
2023-06-20T01:12:30.407Z,0.00
2023-06-20T01:13:30.389Z,0.00
2023-06-20T01:14:30.373Z,0.00
2023-06-20T01:15:30.379Z,0.00
2023-06-20T01:16:30.384Z,0.00
2023-06-20T01:17:30.382Z,0.00
2023-06-20T01:18:30.336Z,0.00
2023-06-20T01:19:30.328Z,0.00
2023-06-20T01:20:30.338Z,0.00
2023-06-20T01:21:30.306Z,0.00
2023-06-20T01:22:30.313Z,0.00
2023-06-20T01:23:30.284Z,0.00
2023-06-20T01:24:30.294Z,0.00
2023-06-20T01:25:30.264Z,0.00
2023-06-20T01:26:30.255Z,0.00
2023-06-20T01:27:30.264Z,0.00
2023-06-20T01:28:30.223Z,0.00
2023-06-20T01:29:30.222Z,0.00
2023-06-20T01:30:30.210Z,0.00
2023-06-20T01:31:30.198Z,0.00
2023-06-20T01:32:30.235Z,0.00
2023-06-20T01:33:30.188Z,0.00
2023-06-20T01:34:30.175Z,0.00
2023-06-20T01:35:30.151Z,0.00
2023-06-20T01:36:30.140Z,0.00
2023-06-20T01:37:30.174Z,0.00
2023-06-20T01:38:30.150Z,0.00
2023-06-20T01:39:30.109Z,0.00
2023-06-20T01:40:30.095Z,0.00
2023-06-20T01:41:30.090Z,0.00
2023-06-20T01:42:30.071Z,0.00
2023-06-20T01:43:30.069Z,0.00
2023-06-20T01:44:30.090Z,0.00
2023-06-20T01:45:30.049Z,0.00
2023-06-20T01:46:30.089Z,0.00
2023-06-20T01:47:30.039Z,0.00
2023-06-20T01:48:30.009Z,0.00
2023-06-20T01:49:30.014Z,0.00
2023-06-20T01:50:30.007Z,0.00
2023-06-20T01:51:29.996Z,0.00
2023-06-20T01:52:29.962Z,0.00
2023-06-20T01:53:32.402Z,0.00
2023-06-20T01:54:29.946Z,0.00
2023-06-20T01:55:29.958Z,0.00
2023-06-20T01:56:29.922Z,0.00
2023-06-20T01:57:29.909Z,0.00
2023-06-20T01:58:29.902Z,0.00
2023-06-20T01:59:29.912Z,0.00
2023-06-20T02:00:29.923Z,0.00
2023-06-20T02:01:29.866Z,0.00
2023-06-20T02:02:29.914Z,0.00
2023-06-20T02:03:29.876Z,0.00
2023-06-20T02:04:29.837Z,0.00
2023-06-20T02:05:29.844Z,0.00
2023-06-20T02:06:29.808Z,0.00
2023-06-20T02:07:29.801Z,0.00
2023-06-20T02:08:29.798Z,0.00
2023-06-20T02:09:29.810Z,0.00
2023-06-20T02:10:29.885Z,0.00
2023-06-20T02:11:29.767Z,0.00
2023-06-20T02:12:29.752Z,0.00
2023-06-20T02:13:29.746Z,0.00
2023-06-20T02:14:29.733Z,0.00
2023-06-20T02:15:29.751Z,0.00
2023-06-20T02:16:29.734Z,0.00
2023-06-20T02:17:29.744Z,0.00
2023-06-20T02:18:29.680Z,0.00
2023-06-20T02:19:29.673Z,0.00
2023-06-20T02:20:29.663Z,0.00
2023-06-20T02:21:29.683Z,0.00
2023-06-20T02:22:29.641Z,0.00
2023-06-20T02:23:29.625Z,0.00
2023-06-20T02:24:29.664Z,0.00
2023-06-20T02:25:29.668Z,0.00
2023-06-20T02:26:29.589Z,0.00
2023-06-20T02:27:29.582Z,0.00
2023-06-20T02:28:29.580Z,0.00
2023-06-20T02:29:29.558Z,0.00
2023-06-20T02:30:29.580Z,0.00
2023-06-20T02:31:29.570Z,0.00
2023-06-20T02:32:29.563Z,0.00
2023-06-20T02:33:29.516Z,4.00
2023-06-20T02:34:29.510Z,4.00
2023-06-20T02:35:29.515Z,4.00
2023-06-20T02:36:29.484Z,0.00
2023-06-20T02:37:29.474Z,4.00
2023-06-20T02:38:29.465Z,4.00
2023-06-20T02:39:29.454Z,4.00
2023-06-20T02:40:29.473Z,4.00
2023-06-20T02:41:29.460Z,4.00
2023-06-20T02:42:29.421Z,8.00
2023-06-20T02:43:29.414Z,4.00
2023-06-20T02:44:29.410Z,8.00
2023-06-20T02:45:29.386Z,8.00
2023-06-20T02:46:29.493Z,8.00
2023-06-20T02:47:29.382Z,8.00
2023-06-20T02:48:29.373Z,12.00
2023-06-20T02:49:29.344Z,12.00
2023-06-20T02:50:29.325Z,12.00
2023-06-20T02:51:29.364Z,16.00
2023-06-20T02:52:29.313Z,12.00
2023-06-20T02:53:29.307Z,16.00
2023-06-20T02:54:29.284Z,16.00
2023-06-20T02:55:29.282Z,20.00
2023-06-20T02:56:29.266Z,20.00
2023-06-20T02:57:29.288Z,20.00
2023-06-20T02:58:29.269Z,24.00
2023-06-20T02:59:29.236Z,24.00
2023-06-20T03:00:29.227Z,24.00
2023-06-20T03:01:29.285Z,28.00
2023-06-20T03:02:29.266Z,32.00
2023-06-20T03:03:29.309Z,32.00
2023-06-20T03:04:29.182Z,36.00
2023-06-20T03:05:29.179Z,40.00
2023-06-20T03:06:29.167Z,40.00
2023-06-20T03:07:29.167Z,40.00
2023-06-20T03:08:29.148Z,44.00
2023-06-20T03:09:29.121Z,44.00
2023-06-20T03:10:29.124Z,48.00
2023-06-20T03:11:29.113Z,52.00
2023-06-20T03:12:29.127Z,60.00
2023-06-20T03:13:29.086Z,64.00
2023-06-20T03:14:29.075Z,76.00
2023-06-20T03:15:29.056Z,80.00
2023-06-20T03:16:29.137Z,88.00
2023-06-20T03:17:29.098Z,92.00
2023-06-20T03:18:29.031Z,96.00
2023-06-20T03:19:29.025Z,96.00
2023-06-20T03:20:29.008Z,100.00
2023-06-20T03:21:29.999Z,100.00
2023-06-20T03:22:29.008Z,100.00
2023-06-20T03:23:28.975Z,108.00
2023-06-20T03:24:29.019Z,120.00
2023-06-20T03:25:28.956Z,128.00
2023-06-20T03:26:28.950Z,136.00
2023-06-20T03:27:28.952Z,136.00
2023-06-20T03:28:28.926Z,132.00
2023-06-20T03:29:28.910Z,128.00
2023-06-20T03:30:28.909Z,120.00
2023-06-20T03:31:28.919Z,112.00
2023-06-20T03:32:28.964Z,112.00
2023-06-20T03:33:28.878Z,108.00
2023-06-20T03:34:28.882Z,116.00
2023-06-20T03:35:28.894Z,120.00
2023-06-20T03:36:28.851Z,128.00
2023-06-20T03:37:28.834Z,140.00
2023-06-20T03:38:28.839Z,148.00
2023-06-20T03:39:28.814Z,156.00
2023-06-20T03:40:28.790Z,168.00
2023-06-20T03:41:28.786Z,176.00
2023-06-20T03:42:28.776Z,184.00
2023-06-20T03:43:28.779Z,196.00
2023-06-20T03:44:28.747Z,216.00
2023-06-20T03:45:29.018Z,232.00
2023-06-20T03:46:28.765Z,248.00
2023-06-20T03:47:28.727Z,264.00
2023-06-20T03:48:28.710Z,280.00
2023-06-20T03:49:28.717Z,292.00
2023-06-20T03:50:28.684Z,304.00
2023-06-20T03:51:28.669Z,312.00
2023-06-20T03:52:28.665Z,328.00
2023-06-20T03:53:28.676Z,344.00
2023-06-20T03:54:28.641Z,356.00
2023-06-20T03:55:28.770Z,368.00
2023-06-20T03:56:28.643Z,380.00
2023-06-20T03:57:28.611Z,388.00
2023-06-20T03:58:28.595Z,396.00
2023-06-20T03:59:28.590Z,400.00
2023-06-20T04:00:28.604Z,420.00
2023-06-20T04:01:28.670Z,448.00
2023-06-20T04:02:28.694Z,484.00
2023-06-20T04:03:28.576Z,536.00
2023-06-20T04:04:28.713Z,604.00
2023-06-20T04:05:28.534Z,680.00
2023-06-20T04:06:28.519Z,760.00
2023-06-20T04:07:28.608Z,844.00
2023-06-20T04:08:28.509Z,924.00
2023-06-20T04:09:28.662Z,1016.00
2023-06-20T04:10:28.529Z,1100.00
2023-06-20T04:11:28.468Z,1180.00
2023-06-20T04:12:28.467Z,1252.00
2023-06-20T04:13:28.475Z,1316.00
2023-06-20T04:14:28.425Z,1368.00
2023-06-20T04:15:28.643Z,1404.00
2023-06-20T04:16:28.444Z,1432.00
2023-06-20T04:17:28.431Z,1432.00
2023-06-20T04:18:31.061Z,1432.00
2023-06-20T04:19:28.388Z,1460.00
2023-06-20T04:20:28.392Z,1496.00
2023-06-20T04:21:28.356Z,1504.00
2023-06-20T04:22:28.604Z,1492.00
2023-06-20T04:23:28.389Z,1460.00
2023-06-20T04:24:28.403Z,1424.00
2023-06-20T04:25:28.615Z,1372.00
2023-06-20T04:26:28.308Z,1272.00
2023-06-20T04:27:28.301Z,1132.00
2023-06-20T04:28:28.473Z,976.00
2023-06-20T04:29:28.305Z,848.00
2023-06-20T04:30:28.245Z,740.00
2023-06-20T04:31:28.240Z,668.00
2023-06-20T04:32:28.251Z,608.00
2023-06-20T04:33:28.329Z,548.00
2023-06-20T04:34:28.210Z,484.00
2023-06-20T04:35:28.392Z,436.00
2023-06-20T04:36:28.218Z,408.00
2023-06-20T04:37:28.221Z,392.00
2023-06-20T04:38:30.200Z,372.00
2023-06-20T04:39:28.315Z,364.00
2023-06-20T04:40:28.278Z,356.00
2023-06-20T04:41:28.157Z,356.00
2023-06-20T04:42:28.154Z,360.00
2023-06-20T04:43:28.108Z,376.00
2023-06-20T04:44:28.169Z,412.00
2023-06-20T04:45:30.113Z,464.00
2023-06-20T04:46:28.102Z,536.00
2023-06-20T04:47:28.200Z,624.00
2023-06-20T04:48:28.231Z,732.00
2023-06-20T04:49:28.307Z,896.00
2023-06-20T04:50:28.162Z,1100.00
2023-06-20T04:51:28.115Z,1336.00
2023-06-20T04:52:28.057Z,1600.00
2023-06-20T04:53:27.993Z,1944.00
2023-06-20T04:54:27.994Z,2360.00
2023-06-20T04:55:28.341Z,2732.00
2023-06-20T04:56:27.999Z,3064.00
2023-06-20T04:57:28.197Z,3276.00
2023-06-20T04:58:27.939Z,3396.00
2023-06-20T04:59:28.247Z,3448.00
2023-06-20T05:00:28.352Z,3412.00
2023-06-20T05:01:27.983Z,3320.00
2023-06-20T05:02:27.946Z,3172.00
2023-06-20T05:03:27.938Z,3028.00
2023-06-20T05:04:28.304Z,2900.00
2023-06-20T05:05:27.954Z,2804.00
2023-06-20T05:06:27.997Z,2740.00
2023-06-20T05:07:27.846Z,2712.00
2023-06-20T05:08:27.830Z,2712.00
2023-06-20T05:09:27.819Z,2748.00
2023-06-20T05:10:28.172Z,2796.00
2023-06-20T05:11:27.852Z,2856.00
2023-06-20T05:12:27.841Z,2916.00
2023-06-20T05:13:27.874Z,2960.00
2023-06-20T05:14:27.770Z,3000.00
2023-06-20T05:15:27.941Z,3076.00
2023-06-20T05:16:27.775Z,3176.00
2023-06-20T05:17:27.813Z,3316.00
2023-06-20T05:18:28.163Z,3488.00
2023-06-20T05:19:27.743Z,3672.00
2023-06-20T05:20:27.978Z,3832.00
2023-06-20T05:21:27.713Z,3928.00
2023-06-20T05:22:27.884Z,3948.00
2023-06-20T05:23:27.746Z,3952.00
2023-06-20T05:24:27.772Z,4000.00
2023-06-20T05:25:27.713Z,4076.00
2023-06-20T05:26:27.675Z,4240.00
2023-06-20T05:27:27.626Z,4412.00
2023-06-20T05:28:27.614Z,4548.00
2023-06-20T05:29:27.655Z,4676.00
2023-06-20T05:30:27.890Z,4820.00
2023-06-20T05:31:27.726Z,4968.00
2023-06-20T05:32:27.777Z,5076.00
2023-06-20T05:33:27.590Z,5120.00
2023-06-20T05:34:27.549Z,5144.00
2023-06-20T05:35:27.812Z,5128.00
2023-06-20T05:36:27.640Z,5140.00
2023-06-20T05:37:27.556Z,5196.00
2023-06-20T05:38:27.568Z,5348.00
2023-06-20T05:39:27.510Z,5544.00
2023-06-20T05:40:27.855Z,5616.00
2023-06-20T05:41:27.475Z,5516.00
2023-06-20T05:42:27.484Z,5280.00
2023-06-20T05:43:27.457Z,4976.00
2023-06-20T05:44:27.439Z,5020.00
2023-06-20T05:45:27.431Z,5372.00
2023-06-20T05:46:27.461Z,5796.00
2023-06-20T05:47:27.429Z,6096.00
2023-06-20T05:48:27.505Z,6348.00
2023-06-20T05:49:27.390Z,6760.00
2023-06-20T05:50:27.665Z,7104.00
2023-06-20T05:51:27.367Z,7208.00
2023-06-20T05:52:27.351Z,7096.00
2023-06-20T05:53:27.368Z,6772.00
2023-06-20T05:54:27.334Z,6280.00
2023-06-20T05:55:27.325Z,5868.00
2023-06-20T05:56:27.316Z,5640.00
2023-06-20T05:57:27.305Z,5576.00
2023-06-20T05:58:27.325Z,5716.00
2023-06-20T05:59:27.277Z,5836.00
2023-06-20T06:00:27.524Z,5648.00
2023-06-20T06:01:27.256Z,5248.00
2023-06-20T06:02:27.271Z,5024.00
2023-06-20T06:03:27.333Z,5084.00
2023-06-20T06:04:27.411Z,5404.00
2023-06-20T06:05:27.246Z,5876.00
2023-06-20T06:06:27.199Z,6380.00
2023-06-20T06:07:27.194Z,6892.00
2023-06-20T06:08:27.215Z,7388.00
2023-06-20T06:09:27.176Z,7752.00
2023-06-20T06:10:27.263Z,7544.00
2023-06-20T06:11:27.155Z,6836.00
2023-06-20T06:12:27.135Z,6428.00
2023-06-20T06:13:27.205Z,6396.00
2023-06-20T06:14:27.140Z,6532.00
2023-06-20T06:15:27.136Z,6352.00
2023-06-20T06:16:27.792Z,5908.00
2023-06-20T06:17:27.162Z,5780.00
2023-06-20T06:18:27.073Z,6008.00
2023-06-20T06:19:27.064Z,6340.00
2023-06-20T06:20:27.381Z,6608.00
2023-06-20T06:21:27.063Z,6820.00
2023-06-20T06:22:27.022Z,6940.00
2023-06-20T06:23:27.069Z,6860.00
2023-06-20T06:24:27.068Z,6664.00
2023-06-20T06:25:26.999Z,6408.00
2023-06-20T06:26:26.988Z,6164.00
2023-06-20T06:27:26.975Z,6024.00
2023-06-20T06:28:26.965Z,6012.00
2023-06-20T06:29:27.020Z,6176.00
2023-06-20T06:30:27.211Z,6516.00
2023-06-20T06:31:26.983Z,6920.00
2023-06-20T06:32:26.962Z,7268.00
2023-06-20T06:33:26.915Z,7464.00
2023-06-20T06:34:26.897Z,7516.00
2023-06-20T06:35:26.917Z,7528.00
2023-06-20T06:36:26.885Z,7476.00
2023-06-20T06:37:26.871Z,7316.00
2023-06-20T06:38:26.862Z,7032.00
2023-06-20T06:39:26.862Z,6540.00
2023-06-20T06:40:27.319Z,6072.00
2023-06-20T06:41:26.826Z,5720.00
2023-06-20T06:42:26.826Z,5500.00
2023-06-20T06:43:26.809Z,5368.00
2023-06-20T06:44:29.930Z,5348.00
2023-06-20T06:45:27.203Z,5588.00
2023-06-20T06:46:26.859Z,6120.00
2023-06-20T06:47:26.797Z,6836.00
2023-06-20T06:48:26.749Z,7552.00
2023-06-20T06:49:26.745Z,8104.00
2023-06-20T06:50:26.743Z,8520.00
2023-06-20T06:51:26.740Z,8648.00
2023-06-20T06:52:26.714Z,8344.00
2023-06-20T06:53:26.863Z,7928.00
2023-06-20T06:54:26.771Z,7600.00
2023-06-20T06:55:27.046Z,7340.00
2023-06-20T06:56:26.661Z,7076.00
2023-06-20T06:57:26.683Z,6856.00
2023-06-20T06:58:26.682Z,6584.00
2023-06-20T06:59:26.668Z,6224.00
2023-06-20T07:00:26.722Z,5972.00
2023-06-20T07:01:26.846Z,5892.00
2023-06-20T07:02:26.805Z,5968.00
2023-06-20T07:03:26.713Z,6072.00
2023-06-20T07:04:26.721Z,6180.00
2023-06-20T07:05:26.867Z,6196.00
2023-06-20T07:06:26.589Z,6092.00
2023-06-20T07:07:26.618Z,6052.00
2023-06-20T07:08:26.622Z,6064.00
2023-06-20T07:09:26.592Z,6036.00
2023-06-20T07:10:26.541Z,6000.00
2023-06-20T07:11:26.586Z,6036.00
2023-06-20T07:12:26.509Z,6132.00
2023-06-20T07:13:26.501Z,6152.00
2023-06-20T07:14:26.474Z,6048.00
2023-06-20T07:15:26.646Z,5860.00
2023-06-20T07:16:26.490Z,5600.00
2023-06-20T07:17:26.523Z,5324.00
2023-06-20T07:18:29.115Z,5180.00
2023-06-20T07:19:26.436Z,5228.00
2023-06-20T07:20:26.486Z,5472.00
2023-06-20T07:21:26.389Z,5936.00
2023-06-20T07:22:26.386Z,6504.00
2023-06-20T07:23:26.367Z,6924.00
2023-06-20T07:24:26.382Z,7280.00
2023-06-20T07:25:26.693Z,7472.00
2023-06-20T07:26:26.343Z,7624.00
2023-06-20T07:27:26.366Z,7760.00
2023-06-20T07:28:26.399Z,7928.00
2023-06-20T07:29:26.331Z,8300.00
2023-06-20T07:30:26.319Z,9016.00
2023-06-20T07:31:26.323Z,9808.00
2023-06-20T07:32:26.292Z,10336.00
2023-06-20T07:33:26.264Z,10792.00
2023-06-20T07:34:26.302Z,11208.00
2023-06-20T07:35:26.544Z,11548.00
2023-06-20T07:36:26.232Z,11728.00
2023-06-20T07:37:26.218Z,11832.00
2023-06-20T07:38:26.238Z,11912.00
2023-06-20T07:39:26.260Z,11900.00
2023-06-20T07:40:26.191Z,11792.00
2023-06-20T07:41:26.198Z,11916.00
2023-06-20T07:42:26.162Z,11848.00
2023-06-20T07:43:28.268Z,11552.00
2023-06-20T07:44:26.148Z,11148.00
2023-06-20T07:45:26.370Z,10588.00
2023-06-20T07:46:26.164Z,10304.00
2023-06-20T07:47:26.149Z,10612.00
2023-06-20T07:48:26.097Z,11260.00
2023-06-20T07:49:26.087Z,11792.00
2023-06-20T07:50:26.122Z,12044.00
2023-06-20T07:51:26.062Z,11948.00
2023-06-20T07:52:26.076Z,11900.00
2023-06-20T07:53:26.043Z,12132.00
2023-06-20T07:54:26.060Z,12544.00
2023-06-20T07:55:30.431Z,12684.00
2023-06-20T07:56:26.018Z,12352.00
2023-06-20T07:57:26.048Z,11912.00
2023-06-20T07:58:26.020Z,11112.00
2023-06-20T07:59:25.997Z,10200.00
2023-06-20T08:00:25.985Z,9364.00
2023-06-20T08:01:26.067Z,8552.00
2023-06-20T08:02:26.032Z,7828.00
2023-06-20T08:03:26.043Z,7412.00
2023-06-20T08:04:25.936Z,7296.00
2023-06-20T08:05:26.178Z,6628.00
2023-06-20T08:06:25.907Z,6452.00
2023-06-20T08:07:25.925Z,6064.00
2023-06-20T08:08:25.878Z,6040.00
2023-06-20T08:09:25.894Z,6412.00
2023-06-20T08:10:25.866Z,6508.00
2023-06-20T08:11:25.895Z,7092.00
2023-06-20T08:12:25.838Z,7296.00
2023-06-20T08:13:25.824Z,7644.00
2023-06-20T08:14:25.841Z,8732.00
2023-06-20T08:15:26.001Z,10360.00
2023-06-20T08:16:25.835Z,10920.00
2023-06-20T08:17:25.815Z,10800.00
2023-06-20T08:18:25.787Z,10936.00
2023-06-20T08:19:25.770Z,11040.00
2023-06-20T08:20:25.755Z,10384.00
2023-06-20T08:21:25.735Z,9736.00
2023-06-20T08:22:25.764Z,9256.00
2023-06-20T08:23:25.717Z,8320.00
2023-06-20T08:24:25.762Z,7260.00
2023-06-20T08:25:25.948Z,6980.00
2023-06-20T08:26:25.695Z,6792.00
2023-06-20T08:27:25.690Z,6132.00
2023-06-20T08:28:25.686Z,5564.00
2023-06-20T08:29:25.652Z,5020.00
2023-06-20T08:30:25.966Z,4952.00
2023-06-20T08:31:25.677Z,4916.00
2023-06-20T08:32:25.649Z,5156.00
2023-06-20T08:33:25.604Z,5408.00
2023-06-20T08:34:25.618Z,5844.00
2023-06-20T08:35:25.579Z,6560.00
2023-06-20T08:36:25.569Z,7296.00
2023-06-20T08:37:25.600Z,7544.00
2023-06-20T08:38:25.573Z,7680.00
2023-06-20T08:39:25.558Z,7680.00
2023-06-20T08:40:25.842Z,7764.00
2023-06-20T08:41:25.514Z,7784.00
2023-06-20T08:42:25.534Z,7428.00
2023-06-20T08:43:25.518Z,6740.00
2023-06-20T08:44:25.491Z,6336.00
2023-06-20T08:45:25.476Z,6176.00
2023-06-20T08:46:25.747Z,5932.00
2023-06-20T08:47:25.759Z,5468.00
2023-06-20T08:48:25.445Z,4968.00
2023-06-20T08:49:25.470Z,4796.00
2023-06-20T08:50:25.845Z,4704.00
2023-06-20T08:51:25.404Z,4956.00
2023-06-20T08:52:25.411Z,5160.00
2023-06-20T08:53:25.392Z,5160.00
2023-06-20T08:54:25.411Z,5108.00
2023-06-20T08:55:25.699Z,5048.00
2023-06-20T08:56:25.387Z,5196.00
2023-06-20T08:57:25.370Z,5240.00
2023-06-20T08:58:25.336Z,5272.00
2023-06-20T08:59:25.366Z,5308.00
2023-06-20T09:00:25.680Z,5388.00
2023-06-20T09:01:25.325Z,5384.00
2023-06-20T09:02:25.335Z,5408.00
2023-06-20T09:03:25.394Z,5452.00
2023-06-20T09:04:25.274Z,5468.00
2023-06-20T09:05:25.650Z,5508.00
2023-06-20T09:06:25.271Z,5544.00
2023-06-20T09:07:25.233Z,5580.00
2023-06-20T09:08:26.795Z,5684.00
2023-06-20T09:09:25.213Z,5780.00
2023-06-20T09:10:25.439Z,5804.00
2023-06-20T09:11:25.215Z,5800.00
2023-06-20T09:12:25.179Z,5836.00
2023-06-20T09:13:25.187Z,5844.00
2023-06-20T09:14:27.112Z,5836.00
2023-06-20T09:15:25.221Z,5904.00
2023-06-20T09:16:25.188Z,6028.00
2023-06-20T09:17:25.206Z,6176.00
2023-06-20T09:18:25.130Z,6340.00
2023-06-20T09:19:25.129Z,6492.00
2023-06-20T09:20:25.492Z,6696.00
2023-06-20T09:21:25.082Z,7080.00
2023-06-20T09:22:25.089Z,7384.00
2023-06-20T09:23:25.064Z,7332.00
2023-06-20T09:24:25.091Z,6868.00
2023-06-20T09:25:25.056Z,6304.00
2023-06-20T09:26:25.075Z,6020.00
2023-06-20T09:27:25.024Z,5860.00
2023-06-20T09:28:25.026Z,5784.00
2023-06-20T09:29:25.004Z,5844.00
2023-06-20T09:30:26.237Z,5868.00
2023-06-20T09:31:25.042Z,5872.00
2023-06-20T09:32:25.002Z,5812.00
2023-06-20T09:33:24.952Z,5832.00
2023-06-20T09:34:24.937Z,5888.00
2023-06-20T09:35:24.927Z,5908.00
2023-06-20T09:36:24.951Z,5980.00
2023-06-20T09:37:24.908Z,6092.00
2023-06-20T09:38:24.906Z,6116.00
2023-06-20T09:39:24.894Z,6164.00
2023-06-20T09:40:25.402Z,6132.00
2023-06-20T09:41:24.871Z,6144.00
2023-06-20T09:42:24.889Z,6188.00
2023-06-20T09:43:24.885Z,6404.00
2023-06-20T09:44:24.839Z,6600.00
2023-06-20T09:45:24.845Z,6500.00
2023-06-20T09:46:24.836Z,6472.00
2023-06-20T09:47:24.849Z,6500.00
2023-06-20T09:48:24.894Z,6616.00
2023-06-20T09:49:24.786Z,6696.00
2023-06-20T09:50:24.967Z,6740.00
2023-06-20T09:51:24.763Z,6712.00
2023-06-20T09:52:24.775Z,6804.00
2023-06-20T09:53:24.742Z,6912.00
2023-06-20T09:54:24.733Z,7080.00
2023-06-20T09:55:24.734Z,7476.00
2023-06-20T09:56:24.712Z,7592.00
2023-06-20T09:57:24.740Z,7348.00
2023-06-20T09:58:24.691Z,7124.00
2023-06-20T09:59:24.717Z,6964.00
2023-06-20T10:00:24.948Z,6924.00
2023-06-20T10:01:24.667Z,6924.00
2023-06-20T10:02:24.692Z,6864.00
2023-06-20T10:03:24.700Z,6984.00
2023-06-20T10:04:24.659Z,6948.00
2023-06-20T10:05:24.651Z,6904.00
2023-06-20T10:06:24.617Z,6920.00
2023-06-20T10:07:24.603Z,6968.00
2023-06-20T10:08:24.592Z,7024.00
2023-06-20T10:09:24.584Z,7080.00
2023-06-20T10:10:24.733Z,7268.00
2023-06-20T10:11:24.558Z,7464.00
2023-06-20T10:12:24.553Z,7696.00
2023-06-20T10:13:24.547Z,7812.00
2023-06-20T10:14:24.548Z,7820.00
2023-06-20T10:15:24.543Z,7888.00
2023-06-20T10:16:24.502Z,8000.00
2023-06-20T10:17:24.547Z,8064.00
2023-06-20T10:18:24.550Z,8144.00
2023-06-20T10:19:24.470Z,8092.00
2023-06-20T10:20:24.794Z,7984.00
2023-06-20T10:21:24.452Z,7944.00
2023-06-20T10:22:24.447Z,8048.00
2023-06-20T10:23:24.484Z,8140.00
2023-06-20T10:24:24.536Z,8392.00
2023-06-20T10:25:24.427Z,8628.00
2023-06-20T10:26:24.393Z,8836.00
2023-06-20T10:27:24.393Z,9108.00
2023-06-20T10:28:24.416Z,9364.00
2023-06-20T10:29:24.377Z,9508.00
2023-06-20T10:30:24.661Z,9688.00
2023-06-20T10:31:24.370Z,9908.00
2023-06-20T10:32:24.366Z,10120.00
2023-06-20T10:33:24.315Z,10388.00
2023-06-20T10:34:24.380Z,10452.00
2023-06-20T10:35:24.319Z,10760.00
2023-06-20T10:36:24.285Z,10944.00
2023-06-20T10:37:24.285Z,11132.00
2023-06-20T10:38:24.268Z,11380.00
2023-06-20T10:39:24.257Z,11552.00
2023-06-20T10:40:24.511Z,11812.00
2023-06-20T10:41:24.267Z,12296.00
2023-06-20T10:42:24.227Z,12620.00
2023-06-20T10:43:24.220Z,13608.00
2023-06-20T10:44:24.210Z,35200.00
2023-06-20T10:45:24.241Z,71712.00
2023-06-20T10:46:24.330Z,82592.00
2023-06-20T10:47:24.203Z,79648.00
2023-06-20T10:48:24.165Z,79360.00
2023-06-20T10:49:24.156Z,78560.00
2023-06-20T10:50:24.288Z,76608.00
2023-06-20T10:51:24.204Z,79488.00
2023-06-20T10:52:24.126Z,81568.00
2023-06-20T10:53:24.129Z,83776.00
2023-06-20T10:54:24.109Z,83232.00
2023-06-20T10:55:24.108Z,87072.00
2023-06-20T10:56:24.110Z,90944.00
2023-06-20T10:57:24.069Z,89696.00
2023-06-20T10:58:32.560Z,84640.00
2023-06-20T10:59:24.058Z,21664.00
2023-06-20T11:00:24.481Z,18912.00
2023-06-20T11:01:24.031Z,27104.00
2023-06-20T11:02:24.125Z,23968.00
2023-06-20T11:03:24.075Z,61664.00
2023-06-20T11:04:24.003Z,91872.00
2023-06-20T11:05:23.996Z,90464.00
2023-06-20T11:06:24.010Z,92992.00
2023-06-20T11:07:23.971Z,87328.00
2023-06-20T11:08:23.974Z,85920.00
2023-06-20T11:09:23.963Z,84416.00
2023-06-20T11:10:24.153Z,82688.00
2023-06-20T11:11:23.939Z,20448.00
2023-06-20T11:12:23.939Z,79904.00
2023-06-20T11:13:23.918Z,80064.00
2023-06-20T11:14:23.914Z,77088.00
2023-06-20T11:15:23.898Z,82176.00
2023-06-20T11:16:23.884Z,81024.00
2023-06-20T11:17:23.921Z,78752.00
2023-06-20T11:18:23.933Z,19424.00
2023-06-20T11:20:24.038Z,79072.00
2023-06-20T11:21:23.834Z,78592.00
2023-06-20T11:22:23.850Z,80544.00
2023-06-20T11:23:23.810Z,78688.00
2023-06-20T11:24:23.884Z,79808.00
2023-06-20T11:25:23.797Z,81312.00
2023-06-20T11:26:23.782Z,78208.00
2023-06-20T11:27:23.810Z,74656.00
2023-06-20T11:28:23.825Z,78080.00
2023-06-20T11:29:23.850Z,80320.00
2023-06-20T11:30:24.031Z,82784.00
2023-06-20T11:31:23.794Z,66784.00
2023-06-20T11:32:23.776Z,83360.00
2023-06-20T11:33:23.737Z,82208.00
2023-06-20T11:34:23.709Z,36384.00
2023-06-20T11:35:23.702Z,80640.00
2023-06-20T11:36:23.697Z,81504.00
2023-06-20T11:37:23.707Z,80384.00
2023-06-20T11:38:23.679Z,82816.00
2023-06-20T11:39:23.661Z,80704.00
2023-06-20T11:40:24.034Z,14608.00
2023-06-20T11:41:23.639Z,18144.00
2023-06-20T11:42:23.656Z,15336.00
2023-06-20T11:43:23.657Z,14164.00
2023-06-20T11:44:23.608Z,13868.00
2023-06-20T11:45:23.615Z,12684.00
2023-06-20T11:46:23.622Z,11556.00
2023-06-20T11:47:23.602Z,10780.00
2023-06-20T11:48:23.590Z,10240.00
2023-06-20T11:49:23.583Z,10372.00
2023-06-20T11:50:23.644Z,11292.00
2023-06-20T11:51:23.549Z,13064.00
2023-06-20T11:52:23.525Z,73888.00
2023-06-20T11:53:23.521Z,80192.00
2023-06-20T11:54:23.531Z,83488.00
2023-06-20T11:55:23.508Z,58464.00
2023-06-20T11:56:23.489Z,84448.00
2023-06-20T11:57:25.297Z,29984.00
2023-06-20T11:58:23.469Z,27392.00
2023-06-20T11:59:23.503Z,77760.00
2023-06-20T12:00:23.542Z,74496.00
2023-06-20T12:01:23.493Z,78432.00
2023-06-20T12:02:23.458Z,79008.00
2023-06-20T12:03:23.459Z,79456.00
2023-06-20T12:04:23.481Z,78336.00
2023-06-20T12:05:23.424Z,74400.00
2023-06-20T12:06:23.392Z,72704.00
2023-06-20T12:07:23.382Z,74080.00
2023-06-20T12:08:23.376Z,76160.00
2023-06-20T12:09:23.597Z,74880.00
2023-06-20T12:10:23.505Z,74304.00
2023-06-20T12:11:23.385Z,71936.00
2023-06-20T12:12:23.337Z,72384.00
2023-06-20T12:13:23.335Z,75168.00
2023-06-20T12:14:23.363Z,78144.00
2023-06-20T12:15:23.332Z,77344.00
2023-06-20T12:16:26.206Z,75968.00
2023-06-20T12:17:23.307Z,70368.00
2023-06-20T12:18:23.285Z,74848.00
2023-06-20T12:19:23.280Z,74816.00
2023-06-20T12:20:32.976Z,74976.00
2023-06-20T12:21:23.255Z,76896.00